Rigshospitalet Helipad

DK-0011 · Capital Region, 丹麦

罗盘
风向 的 风向 070° 直升机
风: 11 kt, 4 beaufort
0 ft 1.000 2.000 3.000 4.000 5.000
未检测到零云
METAR EKCH 032120Z AUTO 07011KT 9999 NCD 04/02 Q1011 TEMPO BKN012

METAR Rigshospitalet Helipad - DK-0011

Rigshospitalet Helipad是,丹麦中的直升机场。 该机场位于纬度55,69666和经度12,56677。 这个机场没有ICAO代码,我们使用DK-0011作为参考。 机场在Kobenhavn FIR中。

该航空气象观测是针对哥本哈根凯斯楚普机场在2024年3月3日 22:20, 当地时间进行的。

机场观察

风向为070°,速度为11 kt。

可见度为10 km 或者更多。

有未检测到零云。 没有观察到天花板。

温度为4 °C,阵风为-2 °C。 露点为2 °C,相对湿度为87%。 海平面上的气压为1011 hPa (QNH)。

发展趋势

  • 暂时的

    可变方向的风很小或没有。 碎云在1.200 ft的高度.

白天

今天,太阳从06:54升起,在17:49降落。 这适用于Rigshospitalet Helipad,世界夏令时可能有所不同。 当地时间与世界标准时间之间的时差为+1 小时。 当前,没有夏令时有效。

公司介绍

我们没有关于这个机场的公司信息。

体会

到Vliegles.nl去找飞行课程,跳伞和其他飞行体验。 浏览页面,了解Rigshospitalet Helipad附近所有可用的活动。 你也可以使用搜索功能来寻找你所在地附近的特定飞行课程、跳伞或其他飞行体验。

乌云

- NCD 未检测到零云
1.200 ft BKN 暂时的 碎云

温度 & 天气

温度 4 °C
露点 2 °C
相对湿度 87%
风寒 -2 °C
Kp-index 4 (0-9)

白天

日出
06:53 (7:57)
中午
12:21
日落
17:48

小工具

你想在你的网站上有一个关于Rigshospitalet Helipad的当前航空天气(METAR)的小部件吗?

显示HTML代码
?>